Time;durP1;ratioP1;P1;durP2;ratioP2;P2;SDS_P1;SDS_P2;PMS_P1;PMS_P2;Temp;Humidity;BMP_temperature;BMP_pressure;BME280_temperature;BME280_humidity;BME280_pressure;Samples;Min_cycle;Max_cycle;Signal;HPM_P1;HPM_P2
2022/10/31 00:00:59;;;;;;;0.10;0.10;;;12.70;99.90;;;;;;5064936;28;20210;-80
2022/10/31 00:03:26;;;;;;;0.10;0.10;;;12.70;99.90;;;;;;5062542;28;20208;-81
2022/10/31 00:05:52;;;;;;;0.10;0.10;;;12.70;99.90;;;;;;5063301;28;20268;-80
2022/10/31 00:08:17;;;;;;;0.10;0.10;;;12.70;99.90;;;;;;5063115;28;20209;-81
2022/10/31 00:10:44;;;;;;;0.10;0.10;;;12.60;99.90;;;;;;5063585;28;20193;-80
2022/10/31 00:13:11;;;;;;;0.10;0.10;;;12.50;99.90;;;;;;5063336;28;20712;-80
2022/10/31 00:15:39;;;;;;;0.10;0.10;;;12.60;99.90;;;;;;5073708;28;20204;-80
2022/10/31 00:18:05;;;;;;;0.10;0.10;;;12.60;99.90;;;;;;5060574;28;20223;-80
2022/10/31 00:20:31;;;;;;;0.03;0.03;;;12.60;99.90;;;;;;5061806;28;20203;-80
2022/10/31 00:22:58;;;;;;;0.10;0.10;;;12.60;99.90;;;;;;5061842;28;20222;-80
2022/10/31 00:25:24;;;;;;;0.10;0.10;;;12.60;99.90;;;;;;5060059;28;20189;-81
2022/10/31 00:27:50;;;;;;;0.03;0.03;;;12.60;99.90;;;;;;5061847;28;20235;-80
2022/10/31 00:30:15;;;;;;;0.10;0.10;;;12.60;99.90;;;;;;5061923;28;20189;-80
2022/10/31 00:32:41;;;;;;;0.10;0.10;;;12.70;99.90;;;;;;5061697;28;20213;-80
2022/10/31 00:35:07;;;;;;;0.10;0.10;;;12.70;99.90;;;;;;5060941;28;20242;-79
2022/10/31 00:37:32;;;;;;;0.10;0.10;;;12.70;99.90;;;;;;5063075;28;20189;-80
2022/10/31 00:39:58;;;;;;;0.10;0.10;;;12.70;99.90;;;;;;5078529;28;20193;-80
2022/10/31 00:42:23;;;;;;;0.10;0.10;;;12.60;99.90;;;;;;5061828;28;20189;-81
2022/10/31 00:44:49;;;;;;;0.10;0.10;;;12.50;99.90;;;;;;5060460;28;20189;-80
2022/10/31 00:47:14;;;;;;;0.10;0.10;;;12.50;99.90;;;;;;5060987;28;20212;-80
2022/10/31 00:49:40;;;;;;;0.10;0.10;;;12.50;99.90;;;;;;5062634;28;20217;-80
2022/10/31 00:52:05;;;;;;;0.07;0.07;;;12.60;99.90;;;;;;5061818;28;20213;-81
2022/10/31 00:54:31;;;;;;;0.03;0.03;;;12.60;99.90;;;;;;5060651;28;20215;-80
2022/10/31 00:56:57;;;;;;;0.10;0.10;;;12.60;99.90;;;;;;5061404;28;20680;-80
2022/10/31 00:59:22;;;;;;;0.10;0.10;;;12.60;99.90;;;;;;5072226;28;20734;-80
2022/10/31 01:01:48;;;;;;;0.00;0.00;;;12.60;99.90;;;;;;5061769;28;20258;-81
2022/10/31 01:04:13;;;;;;;0.10;0.10;;;12.60;99.90;;;;;;5062561;28;20288;-80
2022/10/31 01:06:39;;;;;;;0.10;0.10;;;12.60;99.90;;;;;;5071692;28;20192;-80
2022/10/31 01:09:05;;;;;;;0.10;0.10;;;12.60;99.90;;;;;;5061396;28;20231;-81
2022/10/31 01:11:31;;;;;;;0.10;0.10;;;12.70;99.90;;;;;;5062575;28;20233;-80
2022/10/31 01:13:56;;;;;;;0.10;0.10;;;12.60;99.90;;;;;;5061013;28;20323;-80
2022/10/31 01:16:24;;;;;;;0.10;0.10;;;12.60;99.90;;;;;;5063258;28;20243;-80
2022/10/31 01:18:50;;;;;;;0.10;0.10;;;12.70;99.90;;;;;;5064001;28;20191;-80
2022/10/31 01:21:25;;;;;;;0.10;0.10;;;12.70;99.90;;;;;;5062200;28;20256;-81
2022/10/31 01:23:53;;;;;;;0.10;0.10;;;12.50;99.90;;;;;;5061421;28;20199;-80
2022/10/31 01:26:24;;;;;;;0.10;0.10;;;12.30;99.90;;;;;;5073121;28;20669;-80
2022/10/31 01:28:52;;;;;;;0.10;0.10;;;12.10;99.90;;;;;;5062108;28;20198;-80
2022/10/31 01:31:24;;;;;;;0.03;0.03;;;12.00;99.90;;;;;;5060056;28;20177;-80
2022/10/31 01:33:50;;;;;;;0.10;0.10;;;12.00;99.90;;;;;;5062132;28;20205;-80
2022/10/31 01:36:25;;;;;;;0.10;0.10;;;12.20;99.90;;;;;;5062629;28;20189;-80
2022/10/31 01:38:53;;;;;;;0.07;0.07;;;12.30;99.90;;;;;;5061459;28;20386;-80
2022/10/31 01:41:21;;;;;;;0.10;0.10;;;12.30;99.90;;;;;;5060464;28;20268;-80
2022/10/31 01:43:50;;;;;;;0.10;0.10;;;12.20;99.90;;;;;;5057878;28;20205;-80
2022/10/31 01:46:23;;;;;;;0.10;0.10;;;12.30;99.90;;;;;;5070070;28;20214;-80
2022/10/31 01:48:50;;;;;;;0.10;0.10;;;12.30;99.90;;;;;;5061001;28;21029;-80
2022/10/31 01:51:18;;;;;;;0.10;0.10;;;12.20;99.90;;;;;;5060185;28;20192;-80
2022/10/31 01:53:45;;;;;;;0.10;0.10;;;12.30;99.90;;;;;;5070315;28;20212;-80
2022/10/31 01:56:12;;;;;;;0.10;0.10;;;12.30;99.90;;;;;;5058964;28;20225;-81
2022/10/31 01:58:37;;;;;;;0.10;0.10;;;12.40;99.90;;;;;;5059243;28;20225;-80
2022/10/31 02:01:04;;;;;;;0.10;0.10;;;12.40;99.90;;;;;;5061441;28;20236;-80
2022/10/31 02:03:30;;;;;;;0.10;0.10;;;12.40;99.90;;;;;;5061498;28;20209;-81
2022/10/31 02:05:57;;;;;;;0.10;0.10;;;12.50;99.90;;;;;;5063774;28;20186;-80
2022/10/31 02:08:32;;;;;;;0.10;0.10;;;12.40;99.90;;;;;;5063160;28;20205;-80
2022/10/31 02:10:59;;;;;;;0.10;0.10;;;12.40;99.90;;;;;;5070484;28;20197;-80
2022/10/31 02:13:25;;;;;;;0.07;0.07;;;12.50;99.90;;;;;;5060574;28;20192;-80
2022/10/31 02:15:57;;;;;;;0.10;0.10;;;12.50;99.90;;;;;;5059839;28;20329;-80
2022/10/31 02:18:25;;;;;;;0.00;0.00;;;12.50;99.90;;;;;;5060967;28;20553;-80
2022/10/31 02:21:24;;;;;;;0.10;0.10;;;12.40;99.90;;;;;;5061850;28;20196;-80
2022/10/31 02:24:24;;;;;;;0.10;0.10;;;12.20;99.90;;;;;;5059438;28;20204;-80
2022/10/31 02:26:53;;;;;;;0.10;0.10;;;11.90;99.90;;;;;;5041829;28;20288;-80
2022/10/31 02:29:40;;;;;;;0.10;0.10;;;11.80;99.90;;;;;;5068657;28;20234;-80
2022/10/31 02:32:27;;;;;;;0.10;0.10;;;11.80;99.90;;;;;;5061249;28;20187;-80
2022/10/31 02:34:53;;;;;;;0.10;0.10;;;11.80;99.90;;;;;;5058886;28;20224;-80
2022/10/31 02:37:39;;;;;;;0.10;0.10;;;11.90;99.90;;;;;;5059749;28;20212;-80
2022/10/31 02:40:10;;;;;;;0.00;0.00;;;12.00;99.90;;;;;;5071448;28;20181;-80
2022/10/31 02:43:02;;;;;;;0.10;0.10;;;12.10;99.90;;;;;;5061363;28;20208;-80
2022/10/31 02:45:55;;;;;;;0.10;0.10;;;12.10;99.90;;;;;;5069274;28;20193;-80
2022/10/31 02:48:27;;;;;;;0.10;0.10;;;12.10;99.90;;;;;;5069990;28;20209;-81
2022/10/31 02:50:58;;;;;;;0.10;0.10;;;12.10;99.90;;;;;;5059748;28;20309;-80
2022/10/31 02:53:23;;;;;;;0.10;0.10;;;12.00;99.90;;;;;;5057065;28;20217;-80
2022/10/31 02:56:04;;;;;;;0.10;0.10;;;11.90;99.90;;;;;;5059791;28;20188;-80
2022/10/31 02:58:34;;;;;;;0.10;0.10;;;11.80;99.90;;;;;;5059158;28;20193;-81
2022/10/31 03:01:22;;;;;;;0.10;0.10;;;11.70;99.90;;;;;;5058655;28;20305;-81
2022/10/31 03:03:59;;;;;;;0.10;0.10;;;11.80;99.90;;;;;;5054810;28;20300;-79
2022/10/31 03:06:44;;;;;;;0.10;0.10;;;11.90;99.90;;;;;;5067681;28;20617;-80
2022/10/31 03:09:19;;;;;;;0.00;0.00;;;12.00;99.90;;;;;;5068330;28;20205;-81
2022/10/31 03:12:12;;;;;;;0.10;0.10;;;12.00;99.90;;;;;;5067228;28;20172;-81
2022/10/31 03:14:46;;;;;;;0.10;0.10;;;12.10;99.90;;;;;;5070360;28;20718;-80
2022/10/31 03:17:22;;;;;;;0.10;0.10;;;12.10;99.90;;;;;;5061166;28;20177;-80
2022/10/31 03:19:52;;;;;;;0.00;0.00;;;12.10;99.90;;;;;;5070258;28;20686;-80
2022/10/31 03:22:22;;;;;;;0.10;0.10;;;12.10;99.90;;;;;;5060030;28;20217;-81
2022/10/31 03:24:51;;;;;;;0.10;0.10;;;12.10;99.90;;;;;;5068911;28;20185;-80
2022/10/31 03:27:22;;;;;;;0.10;0.10;;;12.10;99.90;;;;;;5057942;28;20204;-81
2022/10/31 03:29:52;;;;;;;0.10;0.10;;;12.10;99.90;;;;;;5061170;28;20174;-81
2022/10/31 03:32:22;;;;;;;0.10;0.10;;;12.00;99.90;;;;;;5059736;28;20202;-81
2022/10/31 03:34:50;;;;;;;0.00;0.00;;;11.90;99.90;;;;;;5058777;28;20220;-80
2022/10/31 03:37:18;;;;;;;0.10;0.10;;;12.00;99.90;;;;;;5060928;28;20757;-80
2022/10/31 03:39:48;;;;;;;0.07;0.07;;;12.00;99.90;;;;;;5068409;28;20661;-80
2022/10/31 03:42:34;;;;;;;0.10;0.10;;;11.80;99.90;;;;;;5058489;28;20177;-80
2022/10/31 03:45:03;;;;;;;0.10;0.10;;;11.60;99.90;;;;;;5059608;28;20195;-81
2022/10/31 03:47:29;;;;;;;0.00;0.00;;;11.40;99.90;;;;;;5064753;28;20205;-80
2022/10/31 03:49:55;;;;;;;0.10;0.10;;;11.20;99.90;;;;;;5062286;28;20177;-81
2022/10/31 03:52:46;;;;;;;0.10;0.10;;;11.20;99.90;;;;;;5064313;28;20181;-80
2022/10/31 03:55:25;;;;;;;0.10;0.10;;;11.30;99.90;;;;;;5064857;28;20175;-80
2022/10/31 03:57:52;;;;;;;0.00;0.00;;;11.40;99.90;;;;;;5066397;28;20186;-81
2022/10/31 04:00:19;;;;;;;0.10;0.10;;;11.30;99.90;;;;;;5080563;28;20192;-80
2022/10/31 04:03:03;;;;;;;0.03;0.03;;;11.40;99.90;;;;;;5065433;28;20701;-80
2022/10/31 04:05:30;;;;;;;0.10;0.10;;;11.50;99.90;;;;;;5053801;28;20258;-81
2022/10/31 04:07:59;;;;;;;0.10;0.10;;;11.50;99.90;;;;;;5061900;28;20208;-80
2022/10/31 04:10:27;;;;;;;0.10;0.10;;;11.60;99.90;;;;;;5063205;28;20180;-80
2022/10/31 04:12:58;;;;;;;0.00;0.00;;;11.70;99.90;;;;;;5071385;28;20208;-80
2022/10/31 04:15:26;;;;;;;0.10;0.10;;;11.70;99.90;;;;;;5065518;28;20177;-81
2022/10/31 04:17:55;;;;;;;0.10;0.10;;;11.80;99.90;;;;;;5063574;28;20213;-80
2022/10/31 04:20:31;;;;;;;0.10;0.10;;;11.90;99.90;;;;;;5061942;28;20189;-81
2022/10/31 04:22:57;;;;;;;0.10;0.10;;;11.90;99.90;;;;;;5058886;28;20291;-81
2022/10/31 04:25:22;;;;;;;0.10;0.10;;;11.90;99.90;;;;;;5063229;28;20276;-80
2022/10/31 04:27:48;;;;;;;0.10;0.10;;;11.90;99.90;;;;;;5059174;28;20213;-80
2022/10/31 04:30:13;;;;;;;0.10;0.10;;;11.90;99.90;;;;;;5061337;28;20664;-80
2022/10/31 04:32:39;;;;;;;0.10;0.10;;;11.90;99.90;;;;;;5061902;28;21141;-80
2022/10/31 04:35:05;;;;;;;0.10;0.10;;;11.90;99.90;;;;;;5062419;28;20719;-81
2022/10/31 04:37:31;;;;;;;0.10;0.10;;;11.80;99.90;;;;;;5061011;28;20626;-79
2022/10/31 04:39:56;;;;;;;0.10;0.10;;;11.80;99.90;;;;;;5059314;28;20188;-80
2022/10/31 04:42:22;;;;;;;0.10;0.10;;;11.80;99.90;;;;;;5058584;28;20219;-81
2022/10/31 04:44:47;;;;;;;0.10;0.10;;;11.80;99.90;;;;;;5059758;28;20239;-81
2022/10/31 04:47:13;;;;;;;0.10;0.10;;;11.80;99.90;;;;;;5061907;28;20207;-81
2022/10/31 04:49:38;;;;;;;0.00;0.00;;;11.70;99.90;;;;;;5060177;28;20181;-81
2022/10/31 04:52:04;;;;;;;0.10;0.10;;;11.80;99.90;;;;;;5064734;28;20181;-81
2022/10/31 04:54:29;;;;;;;0.10;0.10;;;11.90;99.90;;;;;;5060662;28;20224;-81
2022/10/31 04:56:55;;;;;;;0.10;0.10;;;12.00;99.90;;;;;;5060993;28;20195;-80
2022/10/31 04:59:20;;;;;;;0.10;0.10;;;12.00;99.90;;;;;;5072647;28;20216;-80
2022/10/31 05:01:46;;;;;;;0.07;0.07;;;12.00;99.90;;;;;;5062315;28;20247;-80
2022/10/31 05:04:11;;;;;;;0.10;0.10;;;12.00;99.90;;;;;;5070972;28;20269;-81
2022/10/31 05:06:37;;;;;;;0.10;0.10;;;12.00;99.90;;;;;;5060659;28;20195;-81
2022/10/31 05:09:03;;;;;;;0.10;0.10;;;12.00;99.90;;;;;;5059538;28;20262;-80
2022/10/31 05:11:28;;;;;;;0.10;0.10;;;12.00;99.90;;;;;;5061677;28;20212;-81
2022/10/31 05:13:54;;;;;;;0.10;0.10;;;12.00;99.90;;;;;;5060431;28;20502;-81
2022/10/31 05:16:19;;;;;;;0.00;0.00;;;12.00;99.90;;;;;;5058688;28;20657;-80
2022/10/31 05:18:45;;;;;;;0.10;0.10;;;11.90;99.90;;;;;;5060465;28;20185;-81
2022/10/31 05:21:10;;;;;;;0.10;0.10;;;11.90;99.90;;;;;;5060627;28;20663;-80
2022/10/31 05:23:36;;;;;;;0.00;0.00;;;11.80;99.90;;;;;;5058384;28;20206;-80
2022/10/31 05:26:01;;;;;;;0.10;0.10;;;11.60;99.90;;;;;;5060007;28;20597;-81
2022/10/31 05:28:27;;;;;;;0.10;0.10;;;11.50;99.90;;;;;;5058369;28;20763;-80
2022/10/31 05:30:52;;;;;;;0.10;0.10;;;11.50;99.90;;;;;;5058225;28;20649;-80
2022/10/31 05:33:18;;;;;;;0.03;0.03;;;11.60;99.90;;;;;;5073049;28;20211;-81
2022/10/31 05:35:43;;;;;;;0.10;0.10;;;11.60;99.90;;;;;;5059360;28;20224;-80
2022/10/31 05:38:09;;;;;;;0.10;0.10;;;11.50;99.90;;;;;;5059048;28;20267;-80
2022/10/31 05:40:34;;;;;;;0.10;0.10;;;11.50;99.90;;;;;;5059487;28;20197;-80
2022/10/31 05:43:00;;;;;;;0.00;0.00;;;11.50;99.90;;;;;;5057594;28;20220;-81
2022/10/31 05:45:26;;;;;;;0.10;0.10;;;11.60;99.90;;;;;;5059355;28;20216;-81
2022/10/31 05:47:53;;;;;;;0.10;0.10;;;11.70;99.90;;;;;;5058607;28;20205;-81
2022/10/31 05:50:18;;;;;;;0.10;0.10;;;11.60;99.90;;;;;;5058231;28;20189;-80
2022/10/31 05:52:44;;;;;;;0.00;0.00;;;11.60;99.90;;;;;;5059483;28;20212;-81
2022/10/31 05:55:10;;;;;;;0.10;0.10;;;11.70;99.90;;;;;;5057801;28;20653;-80
2022/10/31 05:57:35;;;;;;;0.10;0.10;;;11.70;99.90;;;;;;5058576;28;20186;-81
2022/10/31 06:00:01;;;;;;;0.10;0.10;;;11.70;99.90;;;;;;5070115;28;20290;-80
2022/10/31 06:02:26;;;;;;;0.10;0.10;;;11.80;99.90;;;;;;5059836;28;20279;-81
2022/10/31 06:04:52;;;;;;;0.10;0.10;;;11.80;99.90;;;;;;5056917;28;20219;-81
2022/10/31 06:07:18;;;;;;;0.10;0.10;;;11.80;99.90;;;;;;5078393;28;20295;-80
2022/10/31 06:09:43;;;;;;;0.10;0.10;;;11.80;99.90;;;;;;5060873;28;20181;-80
2022/10/31 06:12:09;;;;;;;0.10;0.10;;;11.80;99.90;;;;;;5057307;28;20183;-82
2022/10/31 06:14:34;;;;;;;0.10;0.10;;;11.80;99.90;;;;;;5054700;28;20799;-80
2022/10/31 06:17:00;;;;;;;0.10;0.10;;;11.70;99.90;;;;;;5058678;28;20223;-80
2022/10/31 06:19:25;;;;;;;0.10;0.10;;;11.70;99.90;;;;;;5058404;28;20193;-80
2022/10/31 06:21:51;;;;;;;0.10;0.10;;;11.80;99.90;;;;;;5060536;28;20190;-81
2022/10/31 06:24:16;;;;;;;0.10;0.10;;;11.90;99.90;;;;;;5059499;28;20201;-80
2022/10/31 06:26:42;;;;;;;0.07;0.07;;;11.90;99.90;;;;;;5058070;28;20271;-80
2022/10/31 06:29:08;;;;;;;0.00;0.00;;;12.10;99.90;;;;;;5053698;28;20220;-80
2022/10/31 06:31:33;;;;;;;0.10;0.10;;;12.10;99.90;;;;;;5059574;28;20196;-81
2022/10/31 06:33:59;;;;;;;0.00;0.00;;;12.20;99.90;;;;;;5059074;28;20205;-81
2022/10/31 06:36:24;;;;;;;0.10;0.10;;;12.10;99.90;;;;;;5060858;28;20185;-82
2022/10/31 06:38:50;;;;;;;0.10;0.10;;;12.30;99.90;;;;;;5056608;28;20197;-80
2022/10/31 06:41:15;;;;;;;0.10;0.10;;;12.40;99.90;;;;;;5061245;28;20189;-81
2022/10/31 06:43:41;;;;;;;0.10;0.10;;;12.40;99.90;;;;;;5061749;28;20204;-81
2022/10/31 06:46:06;;;;;;;0.10;0.10;;;12.40;99.90;;;;;;5060448;28;20193;-80
2022/10/31 06:48:32;;;;;;;0.10;0.10;;;12.30;99.90;;;;;;5069635;28;20205;-81
2022/10/31 06:51:01;;;;;;;0.10;0.10;;;12.30;99.90;;;;;;5059615;28;21230;-81
2022/10/31 06:53:29;;;;;;;0.10;0.10;;;12.30;99.90;;;;;;5060696;28;20222;-80
2022/10/31 06:55:55;;;;;;;0.10;0.10;;;12.60;99.90;;;;;;5058723;28;20200;-81
2022/10/31 06:58:21;;;;;;;0.10;0.10;;;12.90;99.90;;;;;;5058535;28;20205;-81
2022/10/31 07:00:47;;;;;;;0.10;0.10;;;13.00;99.90;;;;;;5059848;28;20193;-80
2022/10/31 07:03:15;;;;;;;0.10;0.10;;;13.20;99.90;;;;;;5062663;28;20232;-81
2022/10/31 07:05:41;;;;;;;0.10;0.10;;;13.30;99.90;;;;;;5058579;28;20245;-81
2022/10/31 07:08:10;;;;;;;0.10;0.10;;;13.40;99.90;;;;;;5060221;28;20236;-80
2022/10/31 07:10:36;;;;;;;0.00;0.00;;;13.40;99.90;;;;;;5057941;28;20983;-81
2022/10/31 07:13:05;;;;;;;0.10;0.10;;;13.50;99.90;;;;;;5059315;28;20197;-81
2022/10/31 07:15:35;;;;;;;0.10;0.10;;;13.60;99.90;;;;;;5060541;28;20208;-81
2022/10/31 07:18:03;;;;;;;0.10;0.10;;;13.70;99.90;;;;;;5059619;28;20241;-81
2022/10/31 07:20:28;;;;;;;0.10;0.10;;;13.80;99.90;;;;;;5062237;28;20185;-81
2022/10/31 07:22:54;;;;;;;0.10;0.10;;;13.90;99.90;;;;;;5063827;28;20209;-81
2022/10/31 07:25:20;;;;;;;0.10;0.10;;;14.00;99.90;;;;;;5060567;28;20187;-81
2022/10/31 07:27:46;;;;;;;0.10;0.10;;;14.10;99.90;;;;;;5060093;28;20292;-81
2022/10/31 07:30:13;;;;;;;0.10;0.10;;;14.20;99.90;;;;;;5062745;28;20923;-81
2022/10/31 07:32:46;;;;;;;0.10;0.10;;;14.30;99.90;;;;;;5059763;28;20198;-80
2022/10/31 07:35:24;;;;;;;0.10;0.10;;;14.40;99.90;;;;;;5061012;28;20204;-81
2022/10/31 07:37:50;;;;;;;0.10;0.10;;;14.50;99.90;;;;;;5059267;28;20275;-81
2022/10/31 07:40:16;;;;;;;0.10;0.10;;;14.70;99.90;;;;;;5059348;28;20274;-81
2022/10/31 07:42:44;;;;;;;0.10;0.10;;;14.80;99.90;;;;;;5060765;28;20216;-81
2022/10/31 07:45:12;;;;;;;0.10;0.10;;;14.90;99.90;;;;;;5058576;28;20226;-81
2022/10/31 07:47:42;;;;;;;0.10;0.10;;;15.00;99.90;;;;;;5060927;28;20759;-81
2022/10/31 07:50:10;;;;;;;0.10;0.10;;;14.90;99.90;;;;;;5057692;28;20177;-82
2022/10/31 07:52:35;;;;;;;0.10;0.10;;;15.10;99.90;;;;;;5061669;28;20247;-83
2022/10/31 07:55:01;;;;;;;0.10;0.10;;;15.30;99.90;;;;;;5057926;28;20206;-82
2022/10/31 07:57:28;;;;;;;0.10;0.10;;;15.40;99.90;;;;;;5057235;28;20195;-82
2022/10/31 07:59:53;;;;;;;0.10;0.10;;;15.50;99.90;;;;;;5076386;28;20304;-83
2022/10/31 08:02:19;;;;;;;0.10;0.10;;;15.40;99.90;;;;;;5058031;28;20274;-83
2022/10/31 08:04:44;;;;;;;0.10;0.10;;;15.30;99.90;;;;;;5060675;28;20278;-82
2022/10/31 08:07:10;;;;;;;0.10;0.10;;;15.40;99.90;;;;;;5055829;28;20224;-82
2022/10/31 08:09:35;;;;;;;0.10;0.10;;;15.40;99.90;;;;;;5058862;28;20195;-82
2022/10/31 08:12:01;;;;;;;0.10;0.10;;;15.50;99.90;;;;;;5058798;28;20184;-83
2022/10/31 08:14:27;;;;;;;0.10;0.10;;;15.60;99.90;;;;;;5062660;28;20273;-83
2022/10/31 08:16:53;;;;;;;0.10;0.10;;;15.70;99.90;;;;;;5065116;28;20181;-82
2022/10/31 08:19:19;;;;;;;0.10;0.10;;;15.60;99.90;;;;;;5060282;28;20238;-82
2022/10/31 08:21:45;;;;;;;0.10;0.10;;;15.60;99.90;;;;;;5062507;28;20579;-83
2022/10/31 08:24:10;;;;;;;0.10;0.10;;;15.60;99.90;;;;;;5058850;28;20207;-82
2022/10/31 08:26:36;;;;;;;0.10;0.10;;;15.80;99.90;;;;;;5070195;28;20224;-83
2022/10/31 08:29:02;;;;;;;0.10;0.10;;;15.80;99.90;;;;;;5060387;28;20992;-83
2022/10/31 08:31:28;;;;;;;0.10;0.10;;;15.80;99.90;;;;;;5058530;28;20687;-82
2022/10/31 08:33:54;;;;;;;0.10;0.10;;;15.80;99.90;;;;;;5058612;28;20203;-82
2022/10/31 08:36:20;;;;;;;0.10;0.10;;;15.80;99.90;;;;;;5061234;28;20716;-82
2022/10/31 08:38:47;;;;;;;0.10;0.10;;;15.80;99.90;;;;;;5063356;28;20186;-82
2022/10/31 08:41:12;;;;;;;0.10;0.10;;;15.80;99.90;;;;;;5062703;28;20628;-82
2022/10/31 08:43:38;;;;;;;0.10;0.10;;;15.80;99.90;;;;;;5059884;28;20261;-82
2022/10/31 08:46:04;;;;;;;0.10;0.10;;;15.80;99.90;;;;;;5060061;28;20221;-81
2022/10/31 08:48:29;;;;;;;0.10;0.10;;;15.90;99.90;;;;;;5060397;28;20273;-83
2022/10/31 08:50:57;;;;;;;0.10;0.10;;;16.10;99.90;;;;;;5076848;28;20242;-82
2022/10/31 08:53:24;;;;;;;0.10;0.10;;;16.20;99.90;;;;;;5059674;28;20225;-82
2022/10/31 08:55:49;;;;;;;0.10;0.10;;;16.30;99.90;;;;;;5061932;28;20180;-82
2022/10/31 08:58:17;;;;;;;0.10;0.10;;;16.40;99.90;;;;;;5060878;28;20717;-83
2022/10/31 09:00:44;;;;;;;0.10;0.10;;;16.40;99.90;;;;;;5061671;28;20189;-83
2022/10/31 09:03:12;;;;;;;0.10;0.10;;;16.40;99.90;;;;;;5062521;28;20212;-82
2022/10/31 09:05:38;;;;;;;0.10;0.10;;;16.50;99.90;;;;;;5064098;28;20203;-83
2022/10/31 09:08:05;;;;;;;0.10;0.10;;;16.60;99.90;;;;;;5079057;28;20760;-83
2022/10/31 09:10:32;;;;;;;0.10;0.10;;;16.60;99.90;;;;;;5063375;28;20188;-82
2022/10/31 09:13:06;;;;;;;0.10;0.10;;;16.60;99.90;;;;;;5061222;28;20203;-83
2022/10/31 09:15:32;;;;;;;0.10;0.10;;;16.60;99.90;;;;;;5059755;28;20645;-82
2022/10/31 09:17:58;;;;;;;0.10;0.10;;;16.40;99.90;;;;;;5060865;28;20253;-82
2022/10/31 09:20:24;;;;;;;0.10;0.10;;;16.40;99.90;;;;;;5068278;28;20977;-83
2022/10/31 09:22:56;;;;;;;0.10;0.10;;;16.40;99.90;;;;;;5057619;28;20212;-82
2022/10/31 09:25:22;;;;;;;0.10;0.10;;;16.40;99.90;;;;;;5059783;28;20184;-83
2022/10/31 09:27:47;;;;;;;0.10;0.10;;;16.50;99.90;;;;;;5055860;28;20277;-83
2022/10/31 09:30:13;;;;;;;0.10;0.10;;;16.50;99.90;;;;;;5061712;28;20603;-83
2022/10/31 09:32:39;;;;;;;0.10;0.10;;;16.50;99.90;;;;;;5059721;28;20299;-83
2022/10/31 09:35:05;;;;;;;0.10;0.10;;;16.60;99.90;;;;;;5058280;28;20182;-83
2022/10/31 09:37:30;;;;;;;0.10;0.10;;;16.70;99.90;;;;;;5061176;28;20248;-83
2022/10/31 09:39:56;;;;;;;0.10;0.10;;;16.70;99.90;;;;;;5061492;28;20200;-83
2022/10/31 09:42:31;;;;;;;0.10;0.10;;;16.70;99.90;;;;;;5060765;28;20654;-82
2022/10/31 09:44:59;;;;;;;0.10;0.10;;;16.80;99.90;;;;;;5066979;28;20268;-83
2022/10/31 09:48:02;;;;;;;0.10;0.10;;;16.90;99.90;;;;;;5067868;28;20222;-82
2022/10/31 09:50:35;;;;;;;0.10;0.10;;;16.90;99.90;;;;;;5056417;28;20268;-82
2022/10/31 09:53:07;;;;;;;0.00;0.00;;;17.00;99.90;;;;;;5067581;28;20223;-82
2022/10/31 09:55:40;;;;;;;0.10;0.10;;;17.10;99.90;;;;;;5060129;28;20189;-81
2022/10/31 09:58:13;;;;;;;0.10;0.10;;;17.20;99.90;;;;;;5077289;28;20232;-81
2022/10/31 10:00:39;;;;;;;0.10;0.10;;;17.30;99.90;;;;;;5061070;28;20181;-82
2022/10/31 10:03:11;;;;;;;0.10;0.10;;;17.10;99.90;;;;;;5059253;28;20208;-82
2022/10/31 10:05:50;;;;;;;0.10;0.10;;;17.00;99.90;;;;;;5061634;28;20553;-81
2022/10/31 10:08:19;;;;;;;0.10;0.10;;;17.20;99.90;;;;;;5062113;28;20204;-82
2022/10/31 10:11:18;;;;;;;0.10;0.10;;;17.30;99.90;;;;;;5061572;28;21153;-83
2022/10/31 10:14:12;;;;;;;0.10;0.10;;;17.50;99.90;;;;;;5071827;28;20197;-83
2022/10/31 10:16:43;;;;;;;0.10;0.10;;;17.60;99.90;;;;;;5059600;28;20177;-82
2022/10/31 10:19:26;;;;;;;1.87;1.87;;;17.60;99.90;;;;;;5059600;28;20595;-82
2022/10/31 10:22:11;;;;;;;0.10;0.10;;;17.50;99.90;;;;;;5068934;28;20249;-83
2022/10/31 10:24:55;;;;;;;0.10;0.10;;;17.60;99.90;;;;;;5070319;28;20552;-83
2022/10/31 10:27:33;;;;;;;0.10;0.10;;;17.70;99.90;;;;;;5060490;28;20269;-82
2022/10/31 10:30:12;;;;;;;0.10;0.10;;;17.80;99.90;;;;;;5058082;28;20195;-82
2022/10/31 10:32:59;;;;;;;0.10;0.10;;;17.90;99.90;;;;;;5057642;28;20197;-83
2022/10/31 10:35:41;;;;;;;0.10;0.10;;;18.00;99.90;;;;;;5057850;28;20177;-83
2022/10/31 10:38:26;;;;;;;0.10;0.10;;;18.20;99.90;;;;;;5057929;28;20192;-80
2022/10/31 10:40:53;;;;;;;0.10;0.10;;;18.20;99.90;;;;;;5066795;28;20861;-81
2022/10/31 10:43:23;;;;;;;0.10;0.10;;;18.30;99.90;;;;;;5059750;28;20205;-81
2022/10/31 10:48:49;;;;;;;0.10;0.10;;;18.40;99.90;;;;;;5057748;28;20369;-81
2022/10/31 10:51:32;;;;;;;0.10;0.10;;;18.50;99.90;;;;;;5070611;28;20736;-81
2022/10/31 10:54:20;;;;;;;0.10;0.10;;;18.60;99.90;;;;;;5056628;28;20224;-80
2022/10/31 10:57:20;;;;;;;0.10;0.10;;;18.70;99.90;;;;;;5060416;28;20177;-81
2022/10/31 10:59:46;;;;;;;0.10;0.10;;;18.80;99.90;;;;;;5064397;28;20836;-81
2022/10/31 11:02:30;;;;;;;0.10;0.10;;;19.00;99.90;;;;;;5062013;28;20190;-81
2022/10/31 11:04:59;;;;;;;0.10;0.10;;;19.10;99.90;;;;;;5063314;28;20700;-81
2022/10/31 11:07:24;;;;;;;0.10;0.10;;;19.20;99.90;;;;;;5063889;28;20199;-81
2022/10/31 11:09:50;;;;;;;0.10;0.10;;;19.10;99.90;;;;;;5062512;28;20177;-81
2022/10/31 11:12:32;;;;;;;0.10;0.10;;;18.70;99.90;;;;;;5064449;28;20226;-81
2022/10/31 11:15:05;;;;;;;0.10;0.10;;;18.40;99.90;;;;;;5064801;28;20709;-81
2022/10/31 11:17:31;;;;;;;0.10;0.10;;;18.70;99.90;;;;;;5071332;28;20183;-82
2022/10/31 11:20:05;;;;;;;0.10;0.10;;;19.00;99.90;;;;;;5069556;28;20188;-81
2022/10/31 11:22:31;;;;;;;0.10;0.10;;;19.20;99.90;;;;;;5061340;28;20601;-81
2022/10/31 11:24:56;;;;;;;0.10;0.10;;;19.30;99.90;;;;;;5061240;28;20185;-81
2022/10/31 11:27:24;;;;;;;0.10;0.10;;;19.40;99.90;;;;;;5062028;28;20184;-81
2022/10/31 11:29:50;;;;;;;0.10;0.10;;;19.40;99.90;;;;;;5063279;28;21123;-81
2022/10/31 11:32:24;;;;;;;0.10;0.10;;;19.40;99.90;;;;;;5064164;28;20243;-81
2022/10/31 11:34:58;;;;;;;0.10;0.10;;;19.10;99.90;;;;;;5062342;28;20175;-81
2022/10/31 11:37:26;;;;;;;0.10;0.10;;;19.10;99.90;;;;;;5062794;28;20194;-81
2022/10/31 11:39:55;;;;;;;0.10;0.10;;;19.00;99.90;;;;;;5059677;28;20185;-81
2022/10/31 11:42:24;;;;;;;0.10;0.10;;;19.20;99.90;;;;;;5058940;28;20181;-81
2022/10/31 11:44:52;;;;;;;0.10;0.10;;;19.30;99.90;;;;;;5070791;28;20592;-81
2022/10/31 11:47:32;;;;;;;0.10;0.10;;;19.50;99.90;;;;;;5062463;28;20238;-81
2022/10/31 11:50:08;;;;;;;0.10;0.10;;;19.50;99.90;;;;;;5060498;28;20181;-80
2022/10/31 11:52:37;;;;;;;0.10;0.10;;;19.60;99.90;;;;;;5062047;28;20370;-81
2022/10/31 11:55:12;;;;;;;0.10;0.10;;;19.60;99.90;;;;;;5062591;28;20289;-81
2022/10/31 11:57:50;;;;;;;0.10;0.10;;;19.80;99.90;;;;;;5071692;28;20564;-81
2022/10/31 12:00:22;;;;;;;0.10;0.10;;;19.90;99.90;;;;;;5061427;28;20170;-81
2022/10/31 12:02:47;;;;;;;0.10;0.10;;;20.00;99.90;;;;;;5064066;28;20277;-80
2022/10/31 12:05:25;;;;;;;0.10;0.10;;;20.10;99.90;;;;;;5064322;28;20248;-80
2022/10/31 12:07:50;;;;;;;0.10;0.10;;;20.10;99.90;;;;;;5064817;28;20204;-81
2022/10/31 12:10:21;;;;;;;0.10;0.10;;;19.90;99.90;;;;;;5062170;28;20214;-81
2022/10/31 12:13:11;;;;;;;0.10;0.10;;;19.90;99.90;;;;;;5063753;28;20236;-81
2022/10/31 12:15:40;;;;;;;0.10;0.10;;;19.90;99.90;;;;;;5062951;28;20207;-81
2022/10/31 12:18:27;;;;;;;0.10;0.10;;;19.50;99.90;;;;;;5060609;28;20208;-81
2022/10/31 12:21:17;;;;;;;0.10;0.10;;;19.10;99.90;;;;;;5070987;28;20238;-82
2022/10/31 12:24:16;;;;;;;0.10;0.10;;;18.80;99.90;;;;;;5070070;28;20278;-81
2022/10/31 12:27:06;;;;;;;0.10;0.10;;;18.90;99.90;;;;;;5062928;28;20228;-81
2022/10/31 12:29:47;;;;;;;0.10;0.10;;;18.80;99.90;;;;;;5072174;28;20258;-81
2022/10/31 12:32:30;;;;;;;0.10;0.10;;;19.20;99.90;;;;;;5059130;28;20974;-81
2022/10/31 12:36:03;;;;;;;0.10;0.10;;;19.50;99.90;;;;;;5061052;28;20183;-81
2022/10/31 12:38:38;;;;;;;0.10;0.10;;;19.70;99.90;;;;;;4936959;28;20204;-80
2022/10/31 12:41:07;;;;;;;0.10;0.10;;;19.70;99.90;;;;;;5070873;28;20186;-81
2022/10/31 12:43:56;;;;;;;0.10;0.10;;;19.70;99.90;;;;;;5070928;28;20199;-83
2022/10/31 12:46:36;;;;;;;0.10;0.10;;;20.00;99.90;;;;;;5077791;28;20177;-81
2022/10/31 12:49:31;;;;;;;0.10;0.10;;;20.40;99.90;;;;;;5062209;28;20548;-81
2022/10/31 12:52:05;;;;;;;0.10;0.10;;;20.50;99.90;;;;;;5061869;28;20177;-82
2022/10/31 12:54:37;;;;;;;0.10;0.10;;;20.50;99.90;;;;;;5060429;28;20208;-81
2022/10/31 12:57:12;;;;;;;0.10;0.10;;;20.60;99.90;;;;;;5061288;28;20219;-81
2022/10/31 13:00:12;;;;;;;0.10;0.10;;;19.70;99.90;;;;;;5071334;28;20284;-80
2022/10/31 13:02:56;;;;;;;0.10;0.10;;;19.90;99.90;;;;;;5053224;28;20247;-81
2022/10/31 13:05:32;;;;;;;0.10;0.10;;;20.10;99.90;;;;;;5059171;28;20711;-81
2022/10/31 13:08:05;;;;;;;16.80;14.13;;;20.10;99.90;;;;;;5057203;28;20234;-81